sensor_id;sensor_type;location;lat;lon;timestamp;temperature;humidity
63017;DHT22;50274;45.640;11.756;2024-01-15T00:01:08;3.90;72.50
63017;DHT22;50274;45.640;11.756;2024-01-15T00:03:34;3.90;72.50
63017;DHT22;50274;45.640;11.756;2024-01-15T00:06:00;3.90;72.60
63017;DHT22;50274;45.640;11.756;2024-01-15T00:08:26;3.90;72.60
63017;DHT22;50274;45.640;11.756;2024-01-15T00:10:51;3.90;72.50
63017;DHT22;50274;45.640;11.756;2024-01-15T00:13:17;3.90;72.60
63017;DHT22;50274;45.640;11.756;2024-01-15T00:15:43;3.90;72.70
63017;DHT22;50274;45.640;11.756;2024-01-15T00:18:09;3.90;72.70
63017;DHT22;50274;45.640;11.756;2024-01-15T00:20:35;3.90;72.60
63017;DHT22;50274;45.640;11.756;2024-01-15T00:23:00;3.90;72.70
63017;DHT22;50274;45.640;11.756;2024-01-15T00:25:26;3.90;72.80
63017;DHT22;50274;45.640;11.756;2024-01-15T00:27:52;3.90;72.70
63017;DHT22;50274;45.640;11.756;2024-01-15T00:30:18;4.00;72.70
63017;DHT22;50274;45.640;11.756;2024-01-15T00:32:44;4.00;72.80
63017;DHT22;50274;45.640;11.756;2024-01-15T00:35:09;4.00;72.70
63017;DHT22;50274;45.640;11.756;2024-01-15T00:37:36;4.00;72.70
63017;DHT22;50274;45.640;11.756;2024-01-15T00:40:02;4.00;72.60
63017;DHT22;50274;45.640;11.756;2024-01-15T00:42:28;4.00;72.60
63017;DHT22;50274;45.640;11.756;2024-01-15T00:44:53;4.00;72.70
63017;DHT22;50274;45.640;11.756;2024-01-15T00:47:19;4.00;72.60
63017;DHT22;50274;45.640;11.756;2024-01-15T00:49:45;4.00;72.60
63017;DHT22;50274;45.640;11.756;2024-01-15T00:52:11;4.00;72.50
63017;DHT22;50274;45.640;11.756;2024-01-15T00:54:37;3.90;72.50
63017;DHT22;50274;45.640;11.756;2024-01-15T00:57:03;3.90;72.60
63017;DHT22;50274;45.640;11.756;2024-01-15T00:59:29;3.90;72.60
63017;DHT22;50274;45.640;11.756;2024-01-15T01:01:55;3.90;72.60
63017;DHT22;50274;45.640;11.756;2024-01-15T01:04:21;3.90;72.70
63017;DHT22;50274;45.640;11.756;2024-01-15T01:06:46;3.90;72.70
63017;DHT22;50274;45.640;11.756;2024-01-15T01:09:12;3.90;72.90
63017;DHT22;50274;45.640;11.756;2024-01-15T01:11:38;3.80;73.00
63017;DHT22;50274;45.640;11.756;2024-01-15T01:14:04;3.90;73.00
63017;DHT22;50274;45.640;11.756;2024-01-15T01:16:30;3.90;72.90
63017;DHT22;50274;45.640;11.756;2024-01-15T01:18:57;3.90;73.00
63017;DHT22;50274;45.640;11.756;2024-01-15T01:21:22;3.80;72.90
63017;DHT22;50274;45.640;11.756;2024-01-15T01:23:48;3.90;73.00
63017;DHT22;50274;45.640;11.756;2024-01-15T01:26:17;3.90;73.00
63017;DHT22;50274;45.640;11.756;2024-01-15T01:28:43;3.80;73.10
63017;DHT22;50274;45.640;11.756;2024-01-15T01:31:09;3.80;73.10
63017;DHT22;50274;45.640;11.756;2024-01-15T01:33:35;3.80;73.10
63017;DHT22;50274;45.640;11.756;2024-01-15T01:36:00;3.80;73.10
63017;DHT22;50274;45.640;11.756;2024-01-15T01:38:26;3.80;73.10
63017;DHT22;50274;45.640;11.756;2024-01-15T01:40:52;3.80;73.10
63017;DHT22;50274;45.640;11.756;2024-01-15T01:43:18;3.80;73.20
63017;DHT22;50274;45.640;11.756;2024-01-15T01:45:43;3.80;73.20
63017;DHT22;50274;45.640;11.756;2024-01-15T01:48:09;3.80;73.10
63017;DHT22;50274;45.640;11.756;2024-01-15T01:50:35;3.80;73.20
63017;DHT22;50274;45.640;11.756;2024-01-15T01:53:01;3.80;73.10
63017;DHT22;50274;45.640;11.756;2024-01-15T01:55:30;3.80;73.20
63017;DHT22;50274;45.640;11.756;2024-01-15T01:57:57;3.80;73.30
63017;DHT22;50274;45.640;11.756;2024-01-15T02:00:23;3.80;73.20
63017;DHT22;50274;45.640;11.756;2024-01-15T02:02:49;3.70;73.30
63017;DHT22;50274;45.640;11.756;2024-01-15T02:05:18;3.70;73.30
63017;DHT22;50274;45.640;11.756;2024-01-15T02:07:44;3.70;73.20
63017;DHT22;50274;45.640;11.756;2024-01-15T02:10:10;3.60;73.30
63017;DHT22;50274;45.640;11.756;2024-01-15T02:12:36;3.60;73.40
63017;DHT22;50274;45.640;11.756;2024-01-15T02:15:02;3.60;73.40
63017;DHT22;50274;45.640;11.756;2024-01-15T02:17:28;3.60;73.40
63017;DHT22;50274;45.640;11.756;2024-01-15T02:19:54;3.60;73.40
63017;DHT22;50274;45.640;11.756;2024-01-15T02:22:20;3.60;73.40
63017;DHT22;50274;45.640;11.756;2024-01-15T02:24:45;3.50;73.40
63017;DHT22;50274;45.640;11.756;2024-01-15T02:27:12;3.50;73.40
63017;DHT22;50274;45.640;11.756;2024-01-15T02:29:37;3.50;73.50
63017;DHT22;50274;45.640;11.756;2024-01-15T02:32:08;3.50;73.40
63017;DHT22;50274;45.640;11.756;2024-01-15T02:34:34;3.50;73.40
63017;DHT22;50274;45.640;11.756;2024-01-15T02:37:00;3.50;73.40
63017;DHT22;50274;45.640;11.756;2024-01-15T02:39:26;3.40;73.50
63017;DHT22;50274;45.640;11.756;2024-01-15T02:41:51;3.40;73.50
63017;DHT22;50274;45.640;11.756;2024-01-15T02:44:17;3.30;73.50
63017;DHT22;50274;45.640;11.756;2024-01-15T02:46:43;3.30;73.50
63017;DHT22;50274;45.640;11.756;2024-01-15T02:49:09;3.30;73.50
63017;DHT22;50274;45.640;11.756;2024-01-15T02:51:35;3.30;73.50
63017;DHT22;50274;45.640;11.756;2024-01-15T02:54:00;3.30;73.50
63017;DHT22;50274;45.640;11.756;2024-01-15T02:56:26;3.20;73.50
63017;DHT22;50274;45.640;11.756;2024-01-15T02:58:52;3.20;73.50
63017;DHT22;50274;45.640;11.756;2024-01-15T03:01:21;3.20;73.70
63017;DHT22;50274;45.640;11.756;2024-01-15T03:03:47;3.10;73.50
63017;DHT22;50274;45.640;11.756;2024-01-15T03:06:13;3.10;73.50
63017;DHT22;50274;45.640;11.756;2024-01-15T03:08:39;3.10;73.50
63017;DHT22;50274;45.640;11.756;2024-01-15T03:11:04;3.10;73.60
63017;DHT22;50274;45.640;11.756;2024-01-15T03:13:30;3.00;73.60
63017;DHT22;50274;45.640;11.756;2024-01-15T03:15:56;3.00;73.60
63017;DHT22;50274;45.640;11.756;2024-01-15T03:18:22;3.00;73.60
63017;DHT22;50274;45.640;11.756;2024-01-15T03:20:47;3.00;73.70
63017;DHT22;50274;45.640;11.756;2024-01-15T03:23:13;3.00;73.70
63017;DHT22;50274;45.640;11.756;2024-01-15T03:25:39;3.00;73.70
63017;DHT22;50274;45.640;11.756;2024-01-15T03:28:05;3.00;73.80
63017;DHT22;50274;45.640;11.756;2024-01-15T03:30:31;3.00;73.80
63017;DHT22;50274;45.640;11.756;2024-01-15T03:32:56;3.00;73.80
63017;DHT22;50274;45.640;11.756;2024-01-15T03:35:22;3.00;73.70
63017;DHT22;50274;45.640;11.756;2024-01-15T03:37:48;2.90;73.70
63017;DHT22;50274;45.640;11.756;2024-01-15T03:40:14;2.90;73.80
63017;DHT22;50274;45.640;11.756;2024-01-15T03:42:40;2.90;73.80
63017;DHT22;50274;45.640;11.756;2024-01-15T03:45:06;2.90;73.80
63017;DHT22;50274;45.640;11.756;2024-01-15T03:47:32;2.90;73.80
63017;DHT22;50274;45.640;11.756;2024-01-15T03:49:57;2.80;73.80
63017;DHT22;50274;45.640;11.756;2024-01-15T03:52:23;2.80;73.80
63017;DHT22;50274;45.640;11.756;2024-01-15T03:54:49;2.80;73.70
63017;DHT22;50274;45.640;11.756;2024-01-15T03:57:15;2.80;73.70
63017;DHT22;50274;45.640;11.756;2024-01-15T03:59:41;2.80;73.70
63017;DHT22;50274;45.640;11.756;2024-01-15T04:02:07;2.80;73.60
63017;DHT22;50274;45.640;11.756;2024-01-15T04:04:33;2.70;73.60
63017;DHT22;50274;45.640;11.756;2024-01-15T04:06:59;2.70;73.70
63017;DHT22;50274;45.640;11.756;2024-01-15T04:09:24;2.70;73.70
63017;DHT22;50274;45.640;11.756;2024-01-15T04:11:50;2.70;73.60
63017;DHT22;50274;45.640;11.756;2024-01-15T04:14:16;2.70;73.60
63017;DHT22;50274;45.640;11.756;2024-01-15T04:16:42;2.60;73.60
63017;DHT22;50274;45.640;11.756;2024-01-15T04:19:07;2.60;73.60
63017;DHT22;50274;45.640;11.756;2024-01-15T04:21:33;2.50;73.70
63017;DHT22;50274;45.640;11.756;2024-01-15T04:23:59;2.50;73.80
63017;DHT22;50274;45.640;11.756;2024-01-15T04:26:25;2.40;73.80
63017;DHT22;50274;45.640;11.756;2024-01-15T04:28:51;2.50;73.80
63017;DHT22;50274;45.640;11.756;2024-01-15T04:31:24;2.50;73.70
63017;DHT22;50274;45.640;11.756;2024-01-15T04:33:50;2.40;73.70
63017;DHT22;50274;45.640;11.756;2024-01-15T04:36:16;2.40;73.80
63017;DHT22;50274;45.640;11.756;2024-01-15T04:38:42;2.30;73.80
63017;DHT22;50274;45.640;11.756;2024-01-15T04:41:13;2.30;73.80
63017;DHT22;50274;45.640;11.756;2024-01-15T04:43:39;2.30;73.80
63017;DHT22;50274;45.640;11.756;2024-01-15T04:46:08;2.30;73.80
63017;DHT22;50274;45.640;11.756;2024-01-15T04:48:35;2.30;73.80
63017;DHT22;50274;45.640;11.756;2024-01-15T04:51:04;2.30;73.80
63017;DHT22;50274;45.640;11.756;2024-01-15T04:53:30;2.30;73.80
63017;DHT22;50274;45.640;11.756;2024-01-15T04:55:56;2.30;73.80
63017;DHT22;50274;45.640;11.756;2024-01-15T04:58:22;2.20;73.80
63017;DHT22;50274;45.640;11.756;2024-01-15T05:00:51;2.20;73.80
63017;DHT22;50274;45.640;11.756;2024-01-15T05:03:17;2.20;73.90
63017;DHT22;50274;45.640;11.756;2024-01-15T05:05:43;2.20;74.00
63017;DHT22;50274;45.640;11.756;2024-01-15T05:08:09;2.10;74.00
63017;DHT22;50274;45.640;11.756;2024-01-15T05:10:35;2.20;74.00
63017;DHT22;50274;45.640;11.756;2024-01-15T05:13:01;2.10;74.00
63017;DHT22;50274;45.640;11.756;2024-01-15T05:15:27;2.10;74.00
63017;DHT22;50274;45.640;11.756;2024-01-15T05:17:53;2.10;74.00
63017;DHT22;50274;45.640;11.756;2024-01-15T05:20:19;2.10;74.10
63017;DHT22;50274;45.640;11.756;2024-01-15T05:22:45;2.10;74.10
63017;DHT22;50274;45.640;11.756;2024-01-15T05:25:11;2.10;74.10
63017;DHT22;50274;45.640;11.756;2024-01-15T05:27:37;2.10;74.10
63017;DHT22;50274;45.640;11.756;2024-01-15T05:30:03;2.10;74.10
63017;DHT22;50274;45.640;11.756;2024-01-15T05:32:30;2.00;74.00
63017;DHT22;50274;45.640;11.756;2024-01-15T05:34:56;2.00;74.10
63017;DHT22;50274;45.640;11.756;2024-01-15T05:37:22;2.00;74.10
63017;DHT22;50274;45.640;11.756;2024-01-15T05:39:47;2.00;74.10
63017;DHT22;50274;45.640;11.756;2024-01-15T05:42:13;1.90;74.20
63017;DHT22;50274;45.640;11.756;2024-01-15T05:44:39;1.90;74.20
63017;DHT22;50274;45.640;11.756;2024-01-15T05:47:05;1.90;74.20
63017;DHT22;50274;45.640;11.756;2024-01-15T05:49:31;1.80;74.20
63017;DHT22;50274;45.640;11.756;2024-01-15T05:51:56;1.80;74.30
63017;DHT22;50274;45.640;11.756;2024-01-15T05:54:22;1.80;74.40
63017;DHT22;50274;45.640;11.756;2024-01-15T05:56:48;1.80;74.50
63017;DHT22;50274;45.640;11.756;2024-01-15T05:59:14;1.80;74.40
63017;DHT22;50274;45.640;11.756;2024-01-15T06:01:40;1.80;74.50
63017;DHT22;50274;45.640;11.756;2024-01-15T06:04:06;1.80;74.40
63017;DHT22;50274;45.640;11.756;2024-01-15T06:06:32;1.80;74.40
63017;DHT22;50274;45.640;11.756;2024-01-15T06:08:58;1.80;74.30
63017;DHT22;50274;45.640;11.756;2024-01-15T06:11:33;1.80;74.50
63017;DHT22;50274;45.640;11.756;2024-01-15T06:13:59;1.70;74.50
63017;DHT22;50274;45.640;11.756;2024-01-15T06:16:29;1.70;74.50
63017;DHT22;50274;45.640;11.756;2024-01-15T06:18:55;1.70;74.50
63017;DHT22;50274;45.640;11.756;2024-01-15T06:21:21;1.80;74.50
63017;DHT22;50274;45.640;11.756;2024-01-15T06:23:46;1.70;74.50
63017;DHT22;50274;45.640;11.756;2024-01-15T06:26:12;1.80;74.50
63017;DHT22;50274;45.640;11.756;2024-01-15T06:28:38;1.70;74.40
63017;DHT22;50274;45.640;11.756;2024-01-15T06:31:06;1.70;74.40
63017;DHT22;50274;45.640;11.756;2024-01-15T06:33:32;1.70;74.40
63017;DHT22;50274;45.640;11.756;2024-01-15T06:35:58;1.70;74.40
63017;DHT22;50274;45.640;11.756;2024-01-15T06:38:24;1.70;74.50
63017;DHT22;50274;45.640;11.756;2024-01-15T06:40:51;1.70;74.40
63017;DHT22;50274;45.640;11.756;2024-01-15T06:43:17;1.70;74.40
63017;DHT22;50274;45.640;11.756;2024-01-15T06:45:44;1.80;74.40
63017;DHT22;50274;45.640;11.756;2024-01-15T06:48:10;1.70;74.40
63017;DHT22;50274;45.640;11.756;2024-01-15T06:50:38;1.80;74.40
63017;DHT22;50274;45.640;11.756;2024-01-15T06:53:04;1.80;74.30
63017;DHT22;50274;45.640;11.756;2024-01-15T06:55:29;1.80;74.30
63017;DHT22;50274;45.640;11.756;2024-01-15T06:57:55;1.80;74.30
63017;DHT22;50274;45.640;11.756;2024-01-15T07:00:21;1.80;74.40
63017;DHT22;50274;45.640;11.756;2024-01-15T07:02:47;1.80;74.40
63017;DHT22;50274;45.640;11.756;2024-01-15T07:05:12;1.80;74.30
63017;DHT22;50274;45.640;11.756;2024-01-15T07:07:38;1.80;74.20
63017;DHT22;50274;45.640;11.756;2024-01-15T07:10:05;1.80;74.40
63017;DHT22;50274;45.640;11.756;2024-01-15T07:12:31;1.80;74.30
63017;DHT22;50274;45.640;11.756;2024-01-15T07:14:57;1.80;74.30
63017;DHT22;50274;45.640;11.756;2024-01-15T07:17:23;1.90;74.40
63017;DHT22;50274;45.640;11.756;2024-01-15T07:19:49;1.90;74.40
63017;DHT22;50274;45.640;11.756;2024-01-15T07:22:15;1.90;74.30
63017;DHT22;50274;45.640;11.756;2024-01-15T07:24:43;1.90;74.30
63017;DHT22;50274;45.640;11.756;2024-01-15T07:27:09;2.00;74.30
63017;DHT22;50274;45.640;11.756;2024-01-15T07:29:35;2.00;74.30
63017;DHT22;50274;45.640;11.756;2024-01-15T07:32:04;2.00;74.20
63017;DHT22;50274;45.640;11.756;2024-01-15T07:34:30;2.00;74.20
63017;DHT22;50274;45.640;11.756;2024-01-15T07:36:57;2.00;74.30
63017;DHT22;50274;45.640;11.756;2024-01-15T07:39:23;2.00;74.20
63017;DHT22;50274;45.640;11.756;2024-01-15T07:41:50;2.10;74.20
63017;DHT22;50274;45.640;11.756;2024-01-15T07:44:16;2.10;74.30
63017;DHT22;50274;45.640;11.756;2024-01-15T07:46:48;2.10;74.10
63017;DHT22;50274;45.640;11.756;2024-01-15T07:49:14;2.10;74.20
63017;DHT22;50274;45.640;11.756;2024-01-15T07:51:40;2.20;74.50
63017;DHT22;50274;45.640;11.756;2024-01-15T07:54:07;2.10;74.40
63017;DHT22;50274;45.640;11.756;2024-01-15T07:56:33;2.20;74.40
63017;DHT22;50274;45.640;11.756;2024-01-15T07:58:59;2.20;74.50
63017;DHT22;50274;45.640;11.756;2024-01-15T08:01:25;2.20;74.60
63017;DHT22;50274;45.640;11.756;2024-01-15T08:03:51;2.20;74.50
63017;DHT22;50274;45.640;11.756;2024-01-15T08:06:17;2.20;74.60
63017;DHT22;50274;45.640;11.756;2024-01-15T08:08:43;2.30;74.70
63017;DHT22;50274;45.640;11.756;2024-01-15T08:11:09;2.20;74.70
63017;DHT22;50274;45.640;11.756;2024-01-15T08:13:35;2.20;74.70
63017;DHT22;50274;45.640;11.756;2024-01-15T08:16:01;2.20;74.70
63017;DHT22;50274;45.640;11.756;2024-01-15T08:18:27;2.20;74.80
63017;DHT22;50274;45.640;11.756;2024-01-15T08:20:53;2.20;74.90
63017;DHT22;50274;45.640;11.756;2024-01-15T08:23:19;2.20;74.90
63017;DHT22;50274;45.640;11.756;2024-01-15T08:25:45;2.20;75.00
63017;DHT22;50274;45.640;11.756;2024-01-15T08:28:11;2.20;75.00
63017;DHT22;50274;45.640;11.756;2024-01-15T08:30:37;2.30;75.00
63017;DHT22;50274;45.640;11.756;2024-01-15T08:33:03;2.30;74.90
63017;DHT22;50274;45.640;11.756;2024-01-15T08:35:28;2.30;74.90
63017;DHT22;50274;45.640;11.756;2024-01-15T08:37:54;2.30;74.90
63017;DHT22;50274;45.640;11.756;2024-01-15T08:40:20;2.30;74.90
63017;DHT22;50274;45.640;11.756;2024-01-15T08:42:46;2.40;74.90
63017;DHT22;50274;45.640;11.756;2024-01-15T08:45:12;2.40;74.90
63017;DHT22;50274;45.640;11.756;2024-01-15T08:47:38;2.50;74.80
63017;DHT22;50274;45.640;11.756;2024-01-15T08:50:04;2.50;74.80
63017;DHT22;50274;45.640;11.756;2024-01-15T08:52:31;2.60;74.70
63017;DHT22;50274;45.640;11.756;2024-01-15T08:54:57;2.60;74.60
63017;DHT22;50274;45.640;11.756;2024-01-15T08:57:23;2.70;74.60
63017;DHT22;50274;45.640;11.756;2024-01-15T08:59:49;2.70;74.60
63017;DHT22;50274;45.640;11.756;2024-01-15T09:02:14;2.80;74.60
63017;DHT22;50274;45.640;11.756;2024-01-15T09:04:41;3.00;74.40
63017;DHT22;50274;45.640;11.756;2024-01-15T09:07:07;3.00;74.40
63017;DHT22;50274;45.640;11.756;2024-01-15T09:09:33;3.10;74.20
63017;DHT22;50274;45.640;11.756;2024-01-15T09:12:00;3.20;74.50
63017;DHT22;50274;45.640;11.756;2024-01-15T09:14:26;3.30;74.10
63017;DHT22;50274;45.640;11.756;2024-01-15T09:16:53;3.40;74.10
63017;DHT22;50274;45.640;11.756;2024-01-15T09:19:19;3.50;74.20
63017;DHT22;50274;45.640;11.756;2024-01-15T09:21:45;3.60;74.30
63017;DHT22;50274;45.640;11.756;2024-01-15T09:24:11;3.70;74.10
63017;DHT22;50274;45.640;11.756;2024-01-15T09:26:37;3.80;74.00
63017;DHT22;50274;45.640;11.756;2024-01-15T09:29:02;4.00;73.90
63017;DHT22;50274;45.640;11.756;2024-01-15T09:31:28;4.10;73.80
63017;DHT22;50274;45.640;11.756;2024-01-15T09:33:54;4.20;73.70
63017;DHT22;50274;45.640;11.756;2024-01-15T09:36:22;4.30;73.50
63017;DHT22;50274;45.640;11.756;2024-01-15T09:38:48;4.40;73.30
63017;DHT22;50274;45.640;11.756;2024-01-15T09:41:14;4.50;73.10
63017;DHT22;50274;45.640;11.756;2024-01-15T09:43:41;4.70;73.00
63017;DHT22;50274;45.640;11.756;2024-01-15T09:46:07;4.80;72.80
63017;DHT22;50274;45.640;11.756;2024-01-15T09:48:33;5.00;72.70
63017;DHT22;50274;45.640;11.756;2024-01-15T09:51:01;5.10;72.50
63017;DHT22;50274;45.640;11.756;2024-01-15T09:53:27;5.20;72.40
63017;DHT22;50274;45.640;11.756;2024-01-15T09:55:56;5.40;72.20
63017;DHT22;50274;45.640;11.756;2024-01-15T09:58:22;5.50;72.00
63017;DHT22;50274;45.640;11.756;2024-01-15T10:00:48;5.70;71.70
63017;DHT22;50274;45.640;11.756;2024-01-15T10:03:15;5.80;71.50
63017;DHT22;50274;45.640;11.756;2024-01-15T10:05:42;6.00;71.20
63017;DHT22;50274;45.640;11.756;2024-01-15T10:08:09;6.10;71.00
63017;DHT22;50274;45.640;11.756;2024-01-15T10:10:36;6.30;70.70
63017;DHT22;50274;45.640;11.756;2024-01-15T10:13:04;6.40;70.40
63017;DHT22;50274;45.640;11.756;2024-01-15T10:15:35;6.50;70.00
63017;DHT22;50274;45.640;11.756;2024-01-15T10:18:03;6.60;69.30
63017;DHT22;50274;45.640;11.756;2024-01-15T10:20:32;6.70;69.00
63017;DHT22;50274;45.640;11.756;2024-01-15T10:22:58;6.80;68.80
63017;DHT22;50274;45.640;11.756;2024-01-15T10:25:24;6.90;68.80
63017;DHT22;50274;45.640;11.756;2024-01-15T10:28:02;7.00;68.80
63017;DHT22;50274;45.640;11.756;2024-01-15T10:30:28;7.20;68.60
63017;DHT22;50274;45.640;11.756;2024-01-15T10:33:04;7.40;68.40
63017;DHT22;50274;45.640;11.756;2024-01-15T10:35:34;7.50;67.50
63017;DHT22;50274;45.640;11.756;2024-01-15T10:38:01;7.60;66.60
63017;DHT22;50274;45.640;11.756;2024-01-15T10:40:27;7.70;66.10
63017;DHT22;50274;45.640;11.756;2024-01-15T10:42:53;7.80;66.10
63017;DHT22;50274;45.640;11.756;2024-01-15T10:45:19;8.00;66.20
63017;DHT22;50274;45.640;11.756;2024-01-15T10:47:45;8.10;65.60
63017;DHT22;50274;45.640;11.756;2024-01-15T10:50:12;8.20;65.60
63017;DHT22;50274;45.640;11.756;2024-01-15T10:52:39;8.40;65.40
63017;DHT22;50274;45.640;11.756;2024-01-15T10:55:11;8.60;65.10
63017;DHT22;50274;45.640;11.756;2024-01-15T10:57:38;8.80;64.70
63017;DHT22;50274;45.640;11.756;2024-01-15T11:00:07;8.90;64.20
63017;DHT22;50274;45.640;11.756;2024-01-15T11:02:36;9.00;63.90
63017;DHT22;50274;45.640;11.756;2024-01-15T11:05:03;9.20;63.60
63017;DHT22;50274;45.640;11.756;2024-01-15T11:07:31;9.40;63.40
63017;DHT22;50274;45.640;11.756;2024-01-15T11:09:57;9.60;63.10
63017;DHT22;50274;45.640;11.756;2024-01-15T11:12:26;9.70;61.90
63017;DHT22;50274;45.640;11.756;2024-01-15T11:14:51;9.80;61.60
63017;DHT22;50274;45.640;11.756;2024-01-15T11:17:20;9.80;60.90
63017;DHT22;50274;45.640;11.756;2024-01-15T11:19:48;9.90;60.70
63017;DHT22;50274;45.640;11.756;2024-01-15T11:24:57;10.20;60.20
63017;DHT22;50274;45.640;11.756;2024-01-15T11:27:46;10.40;59.80
63017;DHT22;50274;45.640;11.756;2024-01-15T11:30:19;10.50;59.30
63017;DHT22;50274;45.640;11.756;2024-01-15T11:32:48;10.60;58.60
63017;DHT22;50274;45.640;11.756;2024-01-15T11:35:14;10.70;58.70
63017;DHT22;50274;45.640;11.756;2024-01-15T11:40:23;10.80;57.90
63017;DHT22;50274;45.640;11.756;2024-01-15T11:42:49;10.80;57.40
63017;DHT22;50274;45.640;11.756;2024-01-15T11:45:19;10.80;57.40
63017;DHT22;50274;45.640;11.756;2024-01-15T11:48:10;10.70;57.10
63017;DHT22;50274;45.640;11.756;2024-01-15T11:50:50;10.80;56.10
63017;DHT22;50274;45.640;11.756;2024-01-15T11:53:48;10.80;55.80
63017;DHT22;50274;45.640;11.756;2024-01-15T11:56:18;10.90;55.90
63017;DHT22;50274;45.640;11.756;2024-01-15T11:58:46;10.80;54.90
63017;DHT22;50274;45.640;11.756;2024-01-15T12:01:12;10.80;55.10
63017;DHT22;50274;45.640;11.756;2024-01-15T12:03:38;10.80;55.30
63017;DHT22;50274;45.640;11.756;2024-01-15T12:06:09;10.80;55.30
63017;DHT22;50274;45.640;11.756;2024-01-15T12:08:35;10.80;55.80
63017;DHT22;50274;45.640;11.756;2024-01-15T12:11:06;10.80;55.50
63017;DHT22;50274;45.640;11.756;2024-01-15T12:13:36;11.00;55.50
63017;DHT22;50274;45.640;11.756;2024-01-15T12:16:02;11.00;55.20
63017;DHT22;50274;45.640;11.756;2024-01-15T12:18:29;11.00;55.20
63017;DHT22;50274;45.640;11.756;2024-01-15T12:20:55;11.10;55.40
63017;DHT22;50274;45.640;11.756;2024-01-15T12:23:21;11.30;55.40
63017;DHT22;50274;45.640;11.756;2024-01-15T12:25:47;11.40;55.10
63017;DHT22;50274;45.640;11.756;2024-01-15T12:28:13;11.40;54.40
63017;DHT22;50274;45.640;11.756;2024-01-15T12:30:40;11.40;54.70
63017;DHT22;50274;45.640;11.756;2024-01-15T12:33:07;11.40;54.80
63017;DHT22;50274;45.640;11.756;2024-01-15T12:35:34;11.40;54.40
63017;DHT22;50274;45.640;11.756;2024-01-15T12:38:01;11.40;54.50
63017;DHT22;50274;45.640;11.756;2024-01-15T12:40:32;11.30;54.80
63017;DHT22;50274;45.640;11.756;2024-01-15T12:42:59;11.40;55.20
63017;DHT22;50274;45.640;11.756;2024-01-15T12:45:24;11.50;55.30
63017;DHT22;50274;45.640;11.756;2024-01-15T12:47:51;11.60;55.50
63017;DHT22;50274;45.640;11.756;2024-01-15T12:50:17;11.70;55.20
63017;DHT22;50274;45.640;11.756;2024-01-15T12:52:42;11.70;55.20
63017;DHT22;50274;45.640;11.756;2024-01-15T12:55:10;11.70;55.20
63017;DHT22;50274;45.640;11.756;2024-01-15T12:57:36;11.70;54.90
63017;DHT22;50274;45.640;11.756;2024-01-15T13:00:03;11.70;54.40
63017;DHT22;50274;45.640;11.756;2024-01-15T13:02:36;11.80;54.30
63017;DHT22;50274;45.640;11.756;2024-01-15T13:05:03;11.80;54.60
63017;DHT22;50274;45.640;11.756;2024-01-15T13:07:30;11.90;54.40
63017;DHT22;50274;45.640;11.756;2024-01-15T13:09:55;12.00;54.40
63017;DHT22;50274;45.640;11.756;2024-01-15T13:12:21;12.00;54.70
63017;DHT22;50274;45.640;11.756;2024-01-15T13:14:48;12.00;54.50
63017;DHT22;50274;45.640;11.756;2024-01-15T13:17:14;12.00;54.10
63017;DHT22;50274;45.640;11.756;2024-01-15T13:19:43;11.90;53.30
63017;DHT22;50274;45.640;11.756;2024-01-15T13:22:08;11.80;53.10
63017;DHT22;50274;45.640;11.756;2024-01-15T13:24:35;11.70;53.60
63017;DHT22;50274;45.640;11.756;2024-01-15T13:27:02;11.60;53.50
63017;DHT22;50274;45.640;11.756;2024-01-15T13:29:30;11.50;53.90
63017;DHT22;50274;45.640;11.756;2024-01-15T13:31:56;11.40;54.30
63017;DHT22;50274;45.640;11.756;2024-01-15T13:34:22;11.40;54.60
63017;DHT22;50274;45.640;11.756;2024-01-15T13:36:48;11.30;54.50
63017;DHT22;50274;45.640;11.756;2024-01-15T13:39:15;11.20;54.60
63017;DHT22;50274;45.640;11.756;2024-01-15T13:41:48;11.10;55.10
63017;DHT22;50274;45.640;11.756;2024-01-15T13:44:14;11.10;55.20
63017;DHT22;50274;45.640;11.756;2024-01-15T13:46:40;11.00;55.30
63017;DHT22;50274;45.640;11.756;2024-01-15T13:49:07;10.90;55.50
63017;DHT22;50274;45.640;11.756;2024-01-15T13:51:35;10.90;55.80
63017;DHT22;50274;45.640;11.756;2024-01-15T13:54:02;10.80;55.70
63017;DHT22;50274;45.640;11.756;2024-01-15T13:56:30;10.80;55.80
63017;DHT22;50274;45.640;11.756;2024-01-15T13:58:58;10.80;55.90
63017;DHT22;50274;45.640;11.756;2024-01-15T14:01:25;10.70;56.10
63017;DHT22;50274;45.640;11.756;2024-01-15T14:03:54;10.60;56.40
63017;DHT22;50274;45.640;11.756;2024-01-15T14:06:21;10.50;56.80
63017;DHT22;50274;45.640;11.756;2024-01-15T14:08:47;10.40;57.10
63017;DHT22;50274;45.640;11.756;2024-01-15T14:11:13;10.30;57.30
63017;DHT22;50274;45.640;11.756;2024-01-15T14:13:39;10.30;57.50
63017;DHT22;50274;45.640;11.756;2024-01-15T14:16:05;10.20;57.60
63017;DHT22;50274;45.640;11.756;2024-01-15T14:18:31;10.10;57.90
63017;DHT22;50274;45.640;11.756;2024-01-15T14:20:58;10.10;58.20
63017;DHT22;50274;45.640;11.756;2024-01-15T14:23:24;10.00;58.30
63017;DHT22;50274;45.640;11.756;2024-01-15T14:25:49;9.90;58.40
63017;DHT22;50274;45.640;11.756;2024-01-15T14:28:15;9.90;58.50
63017;DHT22;50274;45.640;11.756;2024-01-15T14:30:41;9.80;58.70
63017;DHT22;50274;45.640;11.756;2024-01-15T14:33:07;9.70;58.90
63017;DHT22;50274;45.640;11.756;2024-01-15T14:35:33;9.70;59.10
63017;DHT22;50274;45.640;11.756;2024-01-15T14:37:59;9.60;59.40
63017;DHT22;50274;45.640;11.756;2024-01-15T14:40:25;9.60;59.50
63017;DHT22;50274;45.640;11.756;2024-01-15T14:42:51;9.40;59.40
63017;DHT22;50274;45.640;11.756;2024-01-15T14:45:17;9.40;59.90
63017;DHT22;50274;45.640;11.756;2024-01-15T14:47:43;9.30;60.20
63017;DHT22;50274;45.640;11.756;2024-01-15T14:50:10;9.20;60.40
63017;DHT22;50274;45.640;11.756;2024-01-15T14:52:36;9.10;60.60
63017;DHT22;50274;45.640;11.756;2024-01-15T14:55:02;9.10;60.80
63017;DHT22;50274;45.640;11.756;2024-01-15T14:57:29;9.00;60.90
63017;DHT22;50274;45.640;11.756;2024-01-15T14:59:55;9.00;61.20
63017;DHT22;50274;45.640;11.756;2024-01-15T15:02:21;9.00;61.30
63017;DHT22;50274;45.640;11.756;2024-01-15T15:04:47;8.90;61.40
63017;DHT22;50274;45.640;11.756;2024-01-15T15:07:13;8.90;61.50
63017;DHT22;50274;45.640;11.756;2024-01-15T15:09:39;8.80;61.70
63017;DHT22;50274;45.640;11.756;2024-01-15T15:12:05;8.70;61.90
63017;DHT22;50274;45.640;11.756;2024-01-15T15:14:33;8.60;62.10
63017;DHT22;50274;45.640;11.756;2024-01-15T15:17:04;8.60;62.30
63017;DHT22;50274;45.640;11.756;2024-01-15T15:19:31;8.50;62.50
63017;DHT22;50274;45.640;11.756;2024-01-15T15:21:58;8.50;62.50
63017;DHT22;50274;45.640;11.756;2024-01-15T15:24:24;8.50;62.60
63017;DHT22;50274;45.640;11.756;2024-01-15T15:26:50;8.40;62.60
63017;DHT22;50274;45.640;11.756;2024-01-15T15:29:16;8.30;62.60